Time;durP1;ratioP1;P1;durP2;ratioP2;P2;SDS_P1;SDS_P2;PMS_P1;PMS_P2;Temp;Humidity;BMP_temperature;BMP_pressure;BME280_temperature;BME280_humidity;BME280_pressure;Samples;Min_cycle;Max_cycle;Signal;HPM_P1;HPM_P2
2023/06/14 00:01:03;;;;;;;;;16.25;16.00;;;;;26.55;33.17;100649.81;4942838;28;45416;-58
2023/06/14 00:03:29;;;;;;;;;15.25;13.50;;;;;26.55;32.91;100642.66;4959960;28;45414;-52
2023/06/14 00:05:54;;;;;;;;;16.25;16.00;;;;;26.53;33.09;100643.78;4960141;28;45243;-54
2023/06/14 00:08:21;;;;;;;;;19.75;17.00;;;;;26.51;33.04;100635.91;4958983;28;46064;-41
2023/06/14 00:10:46;;;;;;;;;16.75;16.75;;;;;26.54;32.79;100646.28;4959785;28;45336;-52
2023/06/14 00:13:12;;;;;;;;;21.00;15.75;;;;;26.53;33.02;100647.25;4959894;28;45426;-48
2023/06/14 00:15:38;;;;;;;;;16.75;16.75;;;;;26.53;33.52;100644.59;4960285;28;45339;-51
2023/06/14 00:18:04;;;;;;;;;19.75;17.75;;;;;26.53;33.22;100647.25;4959473;28;46843;-45
2023/06/14 00:20:32;;;;;;;;;16.50;15.25;;;;;26.52;33.42;100642.09;4959703;28;45397;-53
2023/06/14 00:22:59;;;;;;;;;16.50;16.25;;;;;26.51;33.24;100645.72;4959663;28;45452;-56
2023/06/14 00:25:25;;;;;;;;;17.00;17.00;;;;;26.52;33.22;100650.06;4959774;28;45267;-57
2023/06/14 00:27:51;;;;;;;;;15.50;14.50;;;;;26.51;33.46;100643.88;4959449;28;45626;-54
2023/06/14 00:30:16;;;;;;;;;21.25;16.00;;;;;26.51;33.20;100645.72;4959665;28;45327;-50
2023/06/14 00:32:42;;;;;;;;;18.50;18.50;;;;;26.49;33.36;100648.50;4960000;28;45237;-56
2023/06/14 00:35:08;;;;;;;;;18.00;15.25;;;;;26.48;33.35;100641.50;4959794;28;45517;-55
2023/06/14 00:37:34;;;;;;;;;18.50;15.50;;;;;26.48;33.28;100646.81;4959363;28;45667;-53
2023/06/14 00:39:59;;;;;;;;;16.50;15.75;;;;;26.48;33.56;100652.13;4959185;28;45417;-56
2023/06/14 00:42:26;;;;;;;;;20.25;16.25;;;;;26.46;33.42;100658.56;4959347;28;45440;-56
2023/06/14 00:44:51;;;;;;;;;18.75;15.25;;;;;26.46;33.33;100656.72;4959605;28;45473;-55
2023/06/14 00:47:17;;;;;;;;;16.75;15.50;;;;;26.47;33.68;100649.59;4941698;28;46732;-57
2023/06/14 00:49:43;;;;;;;;;17.50;17.25;;;;;26.43;33.70;100654.31;4959606;28;45299;-55
2023/06/14 00:52:12;;;;;;;;;19.50;16.25;;;;;26.47;33.53;100654.91;4959789;28;45868;-53
2023/06/14 00:54:38;;;;;;;;;16.75;16.75;;;;;26.47;33.62;100658.41;4959697;28;45212;-56
2023/06/14 00:57:03;;;;;;;;;17.50;16.00;;;;;26.42;33.55;100652.63;4959228;28;45330;-55
2023/06/14 00:59:29;;;;;;;;;16.25;14.25;;;;;26.44;33.85;100649.88;4959128;28;45172;-54
2023/06/14 01:01:54;;;;;;;;;19.00;13.50;;;;;26.45;33.61;100656.88;4959372;28;45509;-45
2023/06/14 01:04:19;;;;;;;;;19.00;15.75;;;;;26.45;34.08;100662.19;4941914;28;45688;-55
2023/06/14 01:07:09;;;;;;;;;20.00;18.00;;;;;26.44;33.92;100656.00;4958936;28;45230;-56
2023/06/14 01:10:05;;;;;;;;;15.00;13.50;;;;;26.43;34.00;100656.16;4958504;28;45742;-54
2023/06/14 01:12:50;;;;;;;;;17.00;15.25;;;;;26.42;33.87;100652.63;4938091;28;45408;-52
2023/06/14 01:15:17;;;;;;;;;16.25;15.25;;;;;26.41;33.72;100661.56;4959169;28;45316;-55
2023/06/14 01:17:45;;;;;;;;;17.50;15.25;;;;;26.40;33.78;100659.91;4958997;28;46200;-50
2023/06/14 01:20:17;;;;;;;;;18.25;16.25;;;;;26.38;33.58;100657.38;4958960;28;45370;-51
2023/06/14 01:22:52;;;;;;;;;22.25;16.00;;;;;26.39;33.57;100663.53;4959077;28;45271;-45
2023/06/14 01:25:20;;;;;;;;;20.75;16.50;;;;;26.38;34.27;100669.81;4958956;28;45282;-47
2023/06/14 01:27:49;;;;;;;;;12.50;12.50;;;;;26.38;33.96;100667.16;4958528;28;46204;-49
2023/06/14 01:30:15;;;;;;;;;15.75;15.75;;;;;26.36;33.79;100658.47;4941577;28;45369;-52
2023/06/14 01:32:41;;;;;;;;;17.75;14.50;;;;;26.36;34.02;100663.78;4958836;28;45669;-44
2023/06/14 01:35:06;;;;;;;;;17.75;15.25;;;;;26.36;34.16;100669.09;4941243;28;45589;-53
2023/06/14 01:37:32;;;;;;;;;16.50;15.50;;;;;26.34;33.92;100666.56;4958363;28;45246;-44
2023/06/14 01:39:58;;;;;;;;;16.75;15.00;;;;;26.34;34.29;100660.41;4958470;28;45429;-54
2023/06/14 01:42:24;;;;;;;;;19.00;15.25;;;;;26.34;34.05;100661.25;4958397;28;45312;-39
2023/06/14 01:44:53;;;;;;;;;13.00;13.00;;;;;26.34;34.17;100657.75;4958702;28;45498;-55
2023/06/14 01:47:19;;;;;;;;;16.25;16.25;;;;;26.30;34.45;100651.84;4958216;28;46394;-56
2023/06/14 01:49:46;;;;;;;;;14.50;14.25;;;;;26.34;33.92;100665.72;4941238;28;45418;-53
2023/06/14 01:52:12;;;;;;;;;16.00;16.00;;;;;26.34;34.45;100657.75;4958527;28;45387;-52
2023/06/14 01:54:41;;;;;;;;;14.00;14.00;;;;;26.34;34.17;100663.91;4941257;28;45237;-42
2023/06/14 01:57:07;;;;;;;;;15.25;14.50;;;;;26.31;34.54;100664.16;4958071;28;47115;-53
2023/06/14 01:59:34;;;;;;;;;18.75;15.25;;;;;26.35;34.13;100667.41;4957413;28;45952;-49
2023/06/14 02:02:01;;;;;;;;;18.25;16.25;;;;;26.30;34.31;100653.66;4958165;28;45469;-54
2023/06/14 02:04:26;;;;;;;;;13.25;12.00;;;;;26.31;34.25;100660.66;4958534;28;45236;-51
2023/06/14 02:06:51;;;;;;;;;18.75;14.75;;;;;26.30;34.10;100654.50;4958025;28;46226;-54
2023/06/14 02:09:17;;;;;;;;;19.25;15.00;;;;;26.30;34.21;100659.81;4940930;28;45263;-53
2023/06/14 02:11:42;;;;;;;;;17.25;14.50;;;;;26.28;34.36;100661.75;4958183;28;45288;-49
2023/06/14 02:14:10;;;;;;;;;19.75;16.00;;;;;26.30;34.25;100667.78;4958386;28;45430;-54
2023/06/14 02:16:36;;;;;;;;;16.75;14.50;;;;;26.26;34.41;100653.06;4957817;28;46674;-56
2023/06/14 02:19:01;;;;;;;;;12.75;12.75;;;;;26.27;34.30;100662.72;4940531;28;45406;-54
2023/06/14 02:21:26;;;;;;;;;15.00;14.25;;;;;26.26;34.32;100663.69;4957138;28;45423;-55
2023/06/14 02:23:52;;;;;;;;;14.25;13.00;;;;;26.23;34.21;100667.44;4958017;28;45536;-50
2023/06/14 02:26:17;;;;;;;;;18.75;15.75;;;;;26.26;34.38;100668.19;4957333;28;62306;-57
2023/06/14 02:28:42;;;;;;;;;12.25;11.00;;;;;26.24;34.20;100681.56;4957706;28;45447;-50
2023/06/14 02:31:08;;;;;;;;;15.50;13.75;;;;;26.23;34.27;100675.44;4958004;28;45434;-51
2023/06/14 02:33:33;;;;;;;;;16.75;15.75;;;;;26.22;34.10;100681.69;4957693;28;45401;-58
2023/06/14 02:35:58;;;;;;;;;15.00;14.00;;;;;26.20;34.29;100675.66;4956917;28;63454;-43
2023/06/14 02:38:24;;;;;;;;;14.00;13.00;;;;;26.20;34.31;100674.84;4957366;28;49689;-41
2023/06/14 02:40:49;;;;;;;;;18.00;14.00;;;;;26.18;34.18;100666.97;4957702;28;47167;-40
2023/06/14 02:43:17;;;;;;;;;13.25;12.00;;;;;26.18;34.27;100672.28;4958115;28;45407;-51
2023/06/14 02:45:42;;;;;;;;;16.00;14.25;;;;;26.18;34.29;100682.09;4957302;28;46436;-52
2023/06/14 02:48:07;;;;;;;;;15.75;13.50;;;;;26.18;34.45;100676.78;4957343;28;49849;-47
2023/06/14 02:50:33;;;;;;;;;13.25;13.25;;;;;26.18;33.96;100682.09;4957299;28;47566;-50
2023/06/14 02:52:58;;;;;;;;;16.50;13.00;;;;;26.18;34.42;100682.91;4957810;28;45576;-54
2023/06/14 02:55:23;;;;;;;;;13.75;13.50;;;;;26.19;34.13;100684.59;4939827;28;49275;-51
2023/06/14 02:57:49;;;;;;;;;16.75;15.75;;;;;26.14;34.36;100676.19;4957728;28;45358;-56
2023/06/14 03:00:15;;;;;;;;;12.50;12.50;;;;;26.15;34.42;100685.84;4957607;28;45488;-51
2023/06/14 03:02:42;;;;;;;;;15.50;14.50;;;;;26.13;33.99;100685.13;4957679;28;45500;-55
2023/06/14 03:05:08;;;;;;;;;14.50;14.00;;;;;26.09;33.82;100678.34;4957303;28;47240;-53
2023/06/14 03:07:34;;;;;;;;;14.00;12.75;;;;;26.11;34.13;100680.91;4957245;28;45311;-52
2023/06/14 03:09:59;;;;;;;;;16.00;12.75;;;;;26.10;34.54;100695.16;4957294;28;45460;-57
2023/06/14 03:12:25;;;;;;;;;13.50;12.25;;;;;26.08;34.15;100687.25;4939836;28;45557;-57
2023/06/14 03:14:51;;;;;;;;;13.75;13.25;;;;;26.08;33.82;100692.56;4957395;28;46002;-50
2023/06/14 03:17:17;;;;;;;;;9.25;9.25;;;;;26.05;34.10;100687.53;4957345;28;45847;-55
2023/06/14 03:19:43;;;;;;;;;18.25;15.25;;;;;26.03;34.14;100681.50;4957341;28;45308;-55
2023/06/14 03:22:08;;;;;;;;;11.25;11.25;;;;;26.05;34.41;100692.84;4957319;28;45518;-51
2023/06/14 03:24:36;;;;;;;;;14.25;12.75;;;;;26.04;34.05;100699.97;4957014;28;45221;-51
2023/06/14 03:27:02;;;;;;;;;16.25;13.75;;;;;26.01;33.96;100697.56;4957120;28;45783;-51
2023/06/14 03:29:27;;;;;;;;;14.25;12.75;;;;;26.03;33.96;100700.91;4957160;28;45647;-47
2023/06/14 03:32:00;;;;;;;;;18.00;15.00;;;;;26.02;33.86;100709.84;4957446;28;45517;-43
2023/06/14 03:34:26;;;;;;;;;13.50;11.00;;;;;25.98;34.01;100705.78;4960086;28;46195;-41
2023/06/14 03:36:51;;;;;;;;;16.50;14.75;;;;;26.01;34.18;100717.97;4960566;28;45549;-38
2023/06/14 03:39:17;;;;;;;;;15.00;14.00;;;;;25.98;33.81;100707.56;4960459;28;45339;-45
2023/06/14 03:41:42;;;;;;;;;13.75;12.75;;;;;25.96;33.88;100715.69;4959747;28;55779;-39
2023/06/14 03:44:07;;;;;;;;;15.50;12.75;;;;;25.98;34.30;100718.19;4959963;28;47433;-38
2023/06/14 03:46:33;;;;;;;;;16.25;14.50;;;;;25.96;34.38;100720.97;4942699;28;46043;-53
2023/06/14 03:48:58;;;;;;;;;17.75;14.25;;;;;25.97;34.19;100722.69;4942465;28;45429;-40
2023/06/14 03:51:25;;;;;;;;;14.75;14.75;;;;;25.95;34.00;100718.47;4960835;28;45908;-38
2023/06/14 03:53:50;;;;;;;;;15.00;14.00;;;;;25.95;34.27;100718.47;4960209;28;46153;-42
2023/06/14 03:56:15;;;;;;;;;15.75;15.00;;;;;25.95;34.39;100727.25;4959922;28;45276;-41
2023/06/14 03:58:41;;;;;;;;;14.50;12.00;;;;;25.96;34.05;100736.09;4960260;28;45230;-38
2023/06/14 04:01:06;;;;;;;;;17.00;13.50;;;;;25.95;34.42;100731.75;4960129;28;45268;-39
2023/06/14 04:03:33;;;;;;;;;14.50;13.00;;;;;25.91;34.26;100729.31;4942507;28;45412;-38
2023/06/14 04:05:59;;;;;;;;;17.25;14.25;;;;;25.91;34.12;100729.31;4959956;28;45766;-38
2023/06/14 04:08:25;;;;;;;;;15.75;13.00;;;;;25.92;34.00;100728.34;4943014;28;45624;-41
2023/06/14 04:10:50;;;;;;;;;15.75;15.00;;;;;25.93;34.40;100729.19;4960471;28;45656;-53
2023/06/14 04:13:15;;;;;;;;;14.00;13.00;;;;;25.94;33.93;100733.53;4959154;28;61158;-52
2023/06/14 04:15:42;;;;;;;;;14.75;12.75;;;;;25.94;34.27;100730.88;4959992;28;45429;-59
2023/06/14 04:18:08;;;;;;;;;13.75;13.00;;;;;25.91;34.03;100734.63;4959880;28;45362;-51
2023/06/14 04:20:34;;;;;;;;;12.00;12.00;;;;;25.92;33.92;100736.31;4942581;28;45529;-54
2023/06/14 04:23:15;;;;;;;;;15.00;12.75;;;;;25.88;34.37;100732.22;4959424;28;46679;-60
2023/06/14 04:25:40;;;;;;;;;14.75;14.00;;;;;25.83;34.30;100738.84;4942247;28;46137;-51
2023/06/14 04:28:08;;;;;;;;;14.50;14.00;;;;;25.81;34.29;100735.47;4959888;28;45456;-53
2023/06/14 04:30:35;;;;;;;;;14.00;14.00;;;;;25.82;34.37;100745.13;4959846;28;45355;-47
2023/06/14 04:33:05;;;;;;;;;19.00;16.50;;;;;25.78;34.02;100752.50;4959459;28;46006;-47
2023/06/14 04:35:32;;;;;;;;;15.00;12.50;;;;;25.73;34.16;100747.56;4959229;28;45417;-50
2023/06/14 04:37:58;;;;;;;;;14.00;11.75;;;;;25.72;34.14;100748.53;4958834;28;45303;-58
2023/06/14 04:40:23;;;;;;;;;16.25;14.75;;;;;25.72;34.58;100758.31;4960063;28;45481;-60
2023/06/14 04:42:50;;;;;;;;;13.00;13.00;;;;;25.72;34.29;100758.31;4959422;28;45384;-55
2023/06/14 04:45:17;;;;;;;;;13.25;13.25;;;;;25.71;34.72;100760.09;4957457;28;45751;-59
2023/06/14 04:47:43;;;;;;;;;14.00;12.75;;;;;25.69;34.45;100763.84;4959252;28;45751;-61
2023/06/14 04:50:10;;;;;;;;;17.00;15.25;;;;;25.69;35.18;100758.53;4959573;28;45596;-59
2023/06/14 04:52:36;;;;;;;;;14.00;14.00;;;;;25.68;34.44;100759.50;4941991;28;46109;-56
2023/06/14 04:55:02;;;;;;;;;17.75;15.75;;;;;25.66;34.57;100758.78;4959392;28;45486;-52
2023/06/14 04:57:28;;;;;;;;;14.75;12.00;;;;;25.65;34.55;100765.91;4959331;28;45433;-54
2023/06/14 04:59:57;;;;;;;;;14.00;13.00;;;;;25.67;34.46;100757.81;4942519;28;45551;-50
2023/06/14 05:02:24;;;;;;;;;16.75;14.50;;;;;25.65;34.82;100759.75;4959065;28;47050;-50
2023/06/14 05:04:50;;;;;;;;;16.50;13.25;;;;;25.63;34.69;100766.00;4959164;28;45271;-52
2023/06/14 05:07:15;;;;;;;;;14.00;13.25;;;;;25.57;35.17;100755.88;4959143;28;45477;-55
2023/06/14 05:09:40;;;;;;;;;18.50;15.00;;;;;25.59;35.25;100753.97;4959293;28;45295;-59
2023/06/14 05:12:09;;;;;;;;;15.00;15.00;;;;;25.59;34.65;100767.22;4958594;28;53731;-57
2023/06/14 05:14:35;;;;;;;;;14.75;14.00;;;;;25.57;34.82;100765.66;4958873;28;45398;-63
2023/06/14 05:17:02;;;;;;;;;16.75;15.25;;;;;25.55;35.10;100764.94;4941184;28;45340;-59
2023/06/14 05:19:27;;;;;;;;;11.75;10.50;;;;;25.50;34.63;100760.00;4959421;28;45210;-50
2023/06/14 05:21:53;;;;;;;;;15.00;14.00;;;;;25.51;35.33;100767.00;4958733;28;45214;-56
2023/06/14 05:24:18;;;;;;;;;18.75;17.75;;;;;25.50;34.78;100767.97;4958766;28;45351;-53
2023/06/14 05:26:44;;;;;;;;;16.75;14.50;;;;;25.51;34.82;100766.13;4958982;28;45264;-52
2023/06/14 05:29:09;;;;;;;;;11.25;10.00;;;;;25.48;34.89;100769.88;4959141;28;45626;-46
2023/06/14 05:31:35;;;;;;;;;16.00;15.00;;;;;25.46;35.32;100766.50;4958711;28;46348;-48
2023/06/14 05:34:00;;;;;;;;;20.75;14.50;;;;;25.45;35.15;100765.66;4958433;28;45452;-49
2023/06/14 05:36:27;;;;;;;;;13.25;10.00;;;;;25.47;35.07;100766.38;4959006;28;45402;-51
2023/06/14 05:38:57;;;;;;;;;16.00;14.75;;;;;25.46;35.00;100771.81;4958791;28;45491;-48
2023/06/14 05:41:25;;;;;;;;;15.00;13.25;;;;;25.43;34.77;100772.03;4958297;28;47212;-46
2023/06/14 05:43:51;;;;;;;;;13.25;13.00;;;;;25.46;35.08;100782.41;4958451;28;45976;-53
2023/06/14 05:46:21;;;;;;;;;17.50;14.50;;;;;25.47;35.07;100773.50;4958379;28;45430;-54
2023/06/14 05:48:47;;;;;;;;;15.75;12.50;;;;;25.45;35.19;100778.06;4957750;28;45374;-57
2023/06/14 05:51:12;;;;;;;;;16.25;14.75;;;;;25.45;35.50;100776.28;4958285;28;45567;-40
2023/06/14 05:53:37;;;;;;;;;19.50;16.00;;;;;25.45;34.92;100783.38;4940760;28;45392;-51
2023/06/14 05:56:03;;;;;;;;;19.67;16.00;;;;;25.46;35.46;100777.09;4956758;28;56533;-51
2023/06/14 05:58:28;;;;;;;;;20.50;16.25;;;;;25.45;35.19;100788.69;4941222;28;45361;-48
2023/06/14 06:00:53;;;;;;;;;19.25;16.25;;;;;25.41;35.35;100785.44;4957836;28;47818;-53
2023/06/14 06:03:19;;;;;;;;;17.00;16.75;;;;;25.43;35.07;100780.00;4957868;28;47744;-52
2023/06/14 06:05:44;;;;;;;;;18.50;15.00;;;;;25.44;34.92;100785.19;4940271;28;53768;-52
2023/06/14 06:08:10;;;;;;;;;17.75;15.50;;;;;25.44;34.92;100789.66;4958412;28;45611;-45
2023/06/14 06:10:35;;;;;;;;;16.00;15.00;;;;;25.43;34.81;100793.25;4957957;28;46065;-50
2023/06/14 06:13:00;;;;;;;;;16.25;14.25;;;;;25.44;34.89;100794.94;4958402;28;45253;-38
2023/06/14 06:15:26;;;;;;;;;19.67;16.00;;;;;25.46;34.17;100798.34;4957400;28;60398;-42
2023/06/14 06:17:51;;;;;;;;;17.50;14.75;;;;;25.47;34.39;100802.69;4957994;28;45616;-55
2023/06/14 06:20:17;;;;;;;;;15.25;14.50;;;;;25.49;33.70;100797.25;4957735;28;46965;-55
2023/06/14 06:22:42;;;;;;;;;15.75;13.00;;;;;25.50;33.73;100799.81;4957646;28;45524;-55
2023/06/14 06:25:08;;;;;;;;;13.25;12.50;;;;;25.52;33.87;100805.81;4957459;28;54124;-52
2023/06/14 06:27:35;;;;;;;;;13.00;12.25;;;;;25.56;33.29;100794.00;4958141;28;45439;-48
2023/06/14 06:30:01;;;;;;;;;15.00;14.25;;;;;25.56;33.39;100796.66;4957835;28;45596;-56
2023/06/14 06:32:26;;;;;;;;;15.50;14.00;;;;;25.56;33.48;100788.69;4957726;28;45335;-52
2023/06/14 06:34:51;;;;;;;;;19.00;15.75;;;;;25.61;33.21;100802.47;4957563;28;45369;-53
2023/06/14 06:37:17;;;;;;;;;16.25;16.25;;;;;25.61;33.36;100802.47;4957885;28;45575;-43
2023/06/14 06:39:43;;;;;;;;;18.25;14.25;;;;;25.61;33.31;100806.91;4957609;28;46007;-52
2023/06/14 06:42:08;;;;;;;;;13.25;12.75;;;;;25.63;33.07;100819.09;4957606;28;45790;-51
2023/06/14 06:44:34;;;;;;;;;16.75;12.75;;;;;25.62;32.57;100806.81;4957889;28;45303;-45
2023/06/14 06:46:59;;;;;;;;;19.00;16.75;;;;;25.62;33.06;100798.00;4958285;28;45540;-51
2023/06/14 06:49:24;;;;;;;;;13.50;13.25;;;;;25.66;32.81;100804.75;4940104;28;47794;-47
2023/06/14 06:52:04;;;;;;;;;16.00;13.50;;;;;25.67;32.64;100816.22;4939763;28;48225;-52
2023/06/14 06:54:30;;;;;;;;;16.25;14.75;;;;;25.65;32.49;100812.81;4957878;28;45735;-52
2023/06/14 06:56:55;;;;;;;;;18.50;15.25;;;;;25.69;32.53;100819.59;4957582;28;45597;-53
2023/06/14 06:59:21;;;;;;;;;16.75;15.25;;;;;25.68;33.01;100817.91;4957285;28;46493;-55
2023/06/14 07:01:46;;;;;;;;;17.00;14.25;;;;;25.68;32.76;100810.78;4939879;28;45759;-54
2023/06/14 07:04:13;;;;;;;;;11.75;11.75;;;;;25.73;32.64;100821.06;4957378;28;45302;-55
2023/06/14 07:06:38;;;;;;;;;18.00;14.00;;;;;25.73;32.52;100826.38;4956298;28;45558;-55
2023/06/14 07:09:06;;;;;;;;;15.75;14.25;;;;;25.76;33.04;100828.75;4960378;28;46122;-53
2023/06/14 07:11:31;;;;;;;;;14.25;12.75;;;;;25.75;32.85;100832.38;4960934;28;45410;-48
2023/06/14 07:14:00;;;;;;;;;15.25;13.75;;;;;25.78;32.95;100824.19;4960965;28;45311;-46
2023/06/14 07:16:25;;;;;;;;;13.75;13.75;;;;;25.77;32.39;100835.75;4960981;28;45254;-49
2023/06/14 07:18:51;;;;;;;;;14.50;13.50;;;;;25.81;32.70;100834.56;4960526;28;46925;-47
2023/06/14 07:21:16;;;;;;;;;17.00;14.00;;;;;25.82;32.94;100830.94;4960661;28;45324;-41
2023/06/14 07:23:41;;;;;;;;;14.00;14.00;;;;;25.86;32.38;100843.00;4960653;28;45272;-49
2023/06/14 07:26:07;;;;;;;;;18.00;16.50;;;;;25.89;32.79;100841.94;4960901;28;45838;-38
2023/06/14 07:28:32;;;;;;;;;17.00;16.00;;;;;25.91;32.94;100846.16;4960782;28;46808;-50
2023/06/14 07:30:57;;;;;;;;;17.50;16.50;;;;;25.92;32.94;100847.84;4960465;28;45195;-46
2023/06/14 07:33:23;;;;;;;;;16.25;16.25;;;;;25.96;33.44;100860.91;4960622;28;45450;-44
2023/06/14 07:35:49;;;;;;;;;17.00;15.50;;;;;25.97;32.52;100863.41;4960402;28;45263;-52
2023/06/14 07:38:14;;;;;;;;;15.25;15.25;;;;;25.98;32.50;100856.28;4960200;28;46205;-53
2023/06/14 07:40:39;;;;;;;;;15.25;14.00;;;;;26.02;33.11;100855.09;4960047;28;45312;-51
2023/06/14 07:43:05;;;;;;;;;18.50;15.75;;;;;26.02;32.69;100857.75;4960268;28;50412;-45
2023/06/14 07:45:31;;;;;;;;;17.25;14.25;;;;;26.04;32.21;100866.44;4942962;28;45538;-53
2023/06/14 07:47:56;;;;;;;;;17.25;12.50;;;;;26.05;31.60;100860.16;4960013;28;47214;-48
2023/06/14 07:50:21;;;;;;;;;15.25;12.75;;;;;26.07;31.17;100855.59;4959720;28;54803;-49
2023/06/14 07:52:48;;;;;;;;;14.50;14.00;;;;;26.10;31.02;100860.66;4942751;28;45383;-42
2023/06/14 07:55:14;;;;;;;;;16.50;14.75;;;;;26.12;31.35;100864.03;4942776;28;45386;-42
2023/06/14 07:57:40;;;;;;;;;14.00;13.75;;;;;26.13;31.33;100870.22;4959984;28;46228;-48
2023/06/14 08:00:06;;;;;;;;;16.25;12.50;;;;;26.14;31.12;100862.13;4959796;28;56195;-54
2023/06/14 08:02:32;;;;;;;;;11.75;11.75;;;;;26.15;31.25;100869.13;4959976;28;45280;-49
2023/06/14 08:04:58;;;;;;;;;13.50;11.50;;;;;26.16;32.02;100862.84;4942721;28;45621;-51
2023/06/14 08:07:24;;;;;;;;;15.50;13.50;;;;;26.16;32.45;100867.31;4959700;28;46412;-54
2023/06/14 08:09:49;;;;;;;;;11.25;10.50;;;;;26.16;32.88;100870.81;4959894;28;45846;-52
2023/06/14 08:12:14;;;;;;;;;20.00;14.25;;;;;26.17;32.32;100867.19;4959905;28;45444;-55
2023/06/14 08:14:42;;;;;;;;;17.00;12.50;;;;;26.17;32.37;100864.53;4960105;28;45355;-42
2023/06/14 08:17:07;;;;;;;;;14.50;12.25;;;;;26.18;32.44;100868.03;4959946;28;46457;-48
2023/06/14 08:19:33;;;;;;;;;13.75;12.25;;;;;26.18;32.38;100868.84;4958217;28;56191;-54
2023/06/14 08:21:58;;;;;;;;;13.50;12.00;;;;;26.20;32.62;100872.25;4959791;28;45377;-53
2023/06/14 08:24:26;;;;;;;;;13.00;12.50;;;;;26.18;32.43;100868.84;4959741;28;45358;-55
2023/06/14 08:26:53;;;;;;;;;13.50;13.00;;;;;26.21;32.43;100873.94;4959665;28;45297;-51
2023/06/14 08:29:18;;;;;;;;;13.50;11.25;;;;;26.23;32.76;100872.00;4959525;28;45669;-39
2023/06/14 08:31:44;;;;;;;;;16.25;11.75;;;;;26.23;32.84;100872.00;4959681;28;45280;-52
2023/06/14 08:34:09;;;;;;;;;21.25;12.00;;;;;26.25;32.66;100866.56;4959700;28;45585;-54
2023/06/14 08:36:35;;;;;;;;;16.00;12.25;;;;;26.26;32.75;100875.41;4959176;28;46033;-55
2023/06/14 08:39:01;;;;;;;;;15.25;15.00;;;;;26.26;32.69;100876.22;4959373;28;45334;-51
2023/06/14 08:41:29;;;;;;;;;16.00;13.00;;;;;26.28;32.56;100876.13;4959364;28;45353;-55
2023/06/14 08:43:55;;;;;;;;;10.50;9.25;;;;;26.28;32.68;100873.47;4959424;28;45445;-51
2023/06/14 08:46:21;;;;;;;;;17.50;13.50;;;;;26.28;32.46;100871.63;4941674;28;48017;-51
2023/06/14 08:48:49;;;;;;;;;15.00;10.25;;;;;26.27;32.91;100877.09;4959317;28;45199;-52
2023/06/14 08:51:18;;;;;;;;;16.75;13.50;;;;;26.24;32.26;100871.03;4959482;28;45317;-48
2023/06/14 08:53:45;;;;;;;;;15.75;11.75;;;;;26.28;32.17;100878.78;4959411;28;45331;-53
2023/06/14 08:56:13;;;;;;;;;14.25;13.75;;;;;26.29;32.28;100885.78;4959219;28;46193;-50
2023/06/14 08:58:44;;;;;;;;;17.50;15.00;;;;;26.27;31.96;100880.56;4942026;28;45667;-54
2023/06/14 09:01:14;;;;;;;;;14.25;12.00;;;;;26.29;31.72;100881.31;4941961;28;45427;-50
2023/06/14 09:03:40;;;;;;;;;16.50;13.00;;;;;26.30;31.73;100890.09;4959572;28;45484;-51
2023/06/14 09:06:08;;;;;;;;;14.00;13.00;;;;;26.30;31.50;100887.44;4958900;28;47536;-49
2023/06/14 09:08:34;;;;;;;;;11.00;11.00;;;;;26.30;31.67;100887.44;4958953;28;45339;-51
2023/06/14 09:11:01;;;;;;;;;12.50;11.75;;;;;26.29;31.86;100877.81;4959040;28;45343;-54
2023/06/14 09:13:27;;;;;;;;;13.25;12.50;;;;;26.29;31.78;100885.78;4959172;28;45421;-52
2023/06/14 09:15:53;;;;;;;;;13.25;13.25;;;;;26.31;31.39;100889.16;4958673;28;45354;-47
2023/06/14 09:18:20;;;;;;;;;15.00;13.50;;;;;26.29;31.09;100891.09;4958808;28;45271;-50
2023/06/14 09:20:47;;;;;;;;;12.75;11.50;;;;;26.30;31.28;100882.13;4958840;28;45402;-56
2023/06/14 09:23:13;;;;;;;;;11.75;11.75;;;;;26.29;30.97;100880.47;4959155;28;45513;-52
2023/06/14 09:25:43;;;;;;;;;13.25;13.25;;;;;26.31;30.98;100882.03;4957261;28;48419;-54
2023/06/14 09:28:10;;;;;;;;;16.00;14.75;;;;;26.30;30.87;100882.13;4958680;28;45250;-53
2023/06/14 09:30:38;;;;;;;;;15.00;12.25;;;;;26.31;30.31;100890.00;4958504;28;45259;-54
2023/06/14 09:33:04;;;;;;;;;13.00;11.00;;;;;26.31;30.05;100884.69;4958903;28;45518;-54
2023/06/14 09:35:32;;;;;;;;;15.50;13.75;;;;;26.33;30.35;100879.25;4958361;28;46109;-54
2023/06/14 09:37:57;;;;;;;;;14.00;11.00;;;;;26.32;29.93;100877.56;4958593;28;45932;-53
2023/06/14 09:40:23;;;;;;;;;14.00;10.75;;;;;26.33;29.98;100887.22;4958618;28;45716;-56
2023/06/14 09:42:49;;;;;;;;;12.00;12.00;;;;;26.30;29.94;100884.78;4958524;28;45509;-55
2023/06/14 09:45:19;;;;;;;;;11.25;11.25;;;;;26.32;30.11;100893.50;4958453;28;45275;-44
2023/06/14 09:47:46;;;;;;;;;15.25;13.00;;;;;26.33;29.65;100898.72;4941183;28;46206;-50
2023/06/14 09:50:11;;;;;;;;;12.00;12.00;;;;;26.33;29.80;100897.84;4958694;28;45427;-54
2023/06/14 09:52:37;;;;;;;;;15.75;12.50;;;;;26.33;29.53;100889.88;4958463;28;45343;-54
2023/06/14 09:55:12;;;;;;;;;12.25;11.00;;;;;26.34;29.77;100899.53;4940898;28;45311;-54
2023/06/14 09:57:41;;;;;;;;;12.75;11.00;;;;;26.33;29.26;100890.72;4958183;28;45795;-53
2023/06/14 10:00:10;;;;;;;;;13.25;12.50;;;;;26.32;29.16;100897.00;4958451;28;45339;-51
2023/06/14 10:02:37;;;;;;;;;16.25;9.50;;;;;26.34;29.32;100902.19;4958200;28;45381;-52
2023/06/14 10:05:06;;;;;;;;;12.00;10.00;;;;;26.33;29.38;100904.03;4957926;28;46254;-53
2023/06/14 10:07:38;;;;;;;;;11.50;11.25;;;;;26.35;29.04;100901.22;4958110;28;45974;-54
2023/06/14 10:10:04;;;;;;;;;14.25;11.50;;;;;26.35;29.24;100901.22;4957045;28;45437;-53
2023/06/14 10:12:30;;;;;;;;;6.25;5.00;;;;;26.35;29.21;100895.91;4957609;28;45549;-47
2023/06/14 10:14:55;;;;;;;;;17.50;11.00;;;;;26.33;29.04;100895.19;4957965;28;46140;-51
2023/06/14 10:17:42;;;;;;;;;12.25;11.00;;;;;26.35;28.76;100895.91;4957971;28;45397;-43
2023/06/14 10:20:33;;;;;;;;;11.50;10.50;;;;;26.33;28.95;100897.84;4958166;28;45417;-50
2023/06/14 10:23:03;;;;;;;;;12.50;11.50;;;;;26.34;28.89;100899.53;4958122;28;45362;-40
2023/06/14 10:25:30;;;;;;;;;15.00;13.75;;;;;26.35;28.94;100911.84;4957893;28;46266;-39
2023/06/14 10:28:16;;;;;;;;;15.25;14.25;;;;;26.36;28.51;100902.91;4957831;28;45857;-43
2023/06/14 10:31:05;;;;;;;;;15.25;13.25;;;;;26.33;28.43;100911.13;4957966;28;45384;-43
2023/06/14 10:33:31;;;;;;;;;11.50;11.50;;;;;26.36;28.08;100913.56;4957057;28;45717;-48
2023/06/14 10:36:11;;;;;;;;;11.25;11.00;;;;;26.36;28.46;100903.75;4957397;28;45350;-53
2023/06/14 10:38:37;;;;;;;;;12.00;12.00;;;;;26.37;28.17;100904.63;4957813;28;45480;-53
2023/06/14 10:41:05;;;;;;;;;13.00;11.75;;;;;26.36;28.33;100898.44;4957793;28;45441;-51
2023/06/14 10:43:30;;;;;;;;;13.00;11.00;;;;;26.36;28.00;100901.09;4957353;28;45327;-56
2023/06/14 10:46:12;;;;;;;;;15.75;12.75;;;;;26.37;28.06;100888.66;4957389;28;46974;-48
2023/06/14 10:48:41;;;;;;;;;12.00;10.75;;;;;26.37;27.70;100894.00;4957719;28;45799;-56
2023/06/14 10:51:16;;;;;;;;;13.75;13.00;;;;;26.38;27.71;100890.38;4957648;28;45359;-54
2023/06/14 10:53:42;;;;;;;;;12.75;10.00;;;;;26.38;27.78;100891.19;4957643;28;45618;-54
2023/06/14 10:56:08;;;;;;;;;14.50;12.25;;;;;26.37;27.99;100883.34;4957360;28;46570;-54
2023/06/14 10:58:33;;;;;;;;;13.00;11.75;;;;;26.40;27.88;100888.44;4957353;28;45330;-51
2023/06/14 11:00:59;;;;;;;;;10.75;10.00;;;;;26.38;28.10;100885.88;4957458;28;45339;-51
2023/06/14 11:03:50;;;;;;;;;14.50;11.50;;;;;26.38;27.53;100887.72;4957524;28;45441;-49
2023/06/14 11:06:17;;;;;;;;;13.50;12.50;;;;;26.40;27.95;100899.06;4940265;28;46308;-43
2023/06/14 11:08:59;;;;;;;;;9.75;9.75;;;;;26.41;27.64;100900.72;4957384;28;45739;-54